sensor_id;sensor_type;location;lat;lon;timestamp;P1;durP1;ratioP1;P2;durP2;ratioP2
7473;SDS011;3778;42.572;23.426;2022-12-15T00:00:16;12.57;;;6.07;;
7473;SDS011;3778;42.572;23.426;2022-12-15T00:03:06;13.77;;;7.73;;
7473;SDS011;3778;42.572;23.426;2022-12-15T00:05:50;8.90;;;5.33;;
7473;SDS011;3778;42.572;23.426;2022-12-15T00:08:34;9.53;;;5.33;;
7473;SDS011;3778;42.572;23.426;2022-12-15T00:11:18;11.70;;;6.83;;
7473;SDS011;3778;42.572;23.426;2022-12-15T00:14:02;12.47;;;6.97;;
7473;SDS011;3778;42.572;23.426;2022-12-15T00:16:46;10.20;;;6.23;;
7473;SDS011;3778;42.572;23.426;2022-12-15T00:19:31;11.23;;;6.03;;
7473;SDS011;3778;42.572;23.426;2022-12-15T00:22:16;13.00;;;7.03;;
7473;SDS011;3778;42.572;23.426;2022-12-15T00:24:59;12.57;;;7.47;;
7473;SDS011;3778;42.572;23.426;2022-12-15T00:27:43;11.97;;;7.50;;
7473;SDS011;3778;42.572;23.426;2022-12-15T00:30:27;11.03;;;5.93;;
7473;SDS011;3778;42.572;23.426;2022-12-15T00:33:11;10.33;;;5.77;;
7473;SDS011;3778;42.572;23.426;2022-12-15T00:35:58;12.37;;;7.03;;
7473;SDS011;3778;42.572;23.426;2022-12-15T00:38:42;10.87;;;5.83;;
7473;SDS011;3778;42.572;23.426;2022-12-15T00:41:09;14.03;;;7.87;;
7473;SDS011;3778;42.572;23.426;2022-12-15T00:43:37;17.13;;;8.33;;
7473;SDS011;3778;42.572;23.426;2022-12-15T00:46:04;16.57;;;8.50;;
7473;SDS011;3778;42.572;23.426;2022-12-15T00:48:49;16.67;;;8.10;;
7473;SDS011;3778;42.572;23.426;2022-12-15T00:51:17;15.53;;;8.37;;
7473;SDS011;3778;42.572;23.426;2022-12-15T00:53:43;20.17;;;10.10;;
7473;SDS011;3778;42.572;23.426;2022-12-15T00:56:28;16.37;;;9.20;;
7473;SDS011;3778;42.572;23.426;2022-12-15T00:59:13;15.97;;;9.07;;
7473;SDS011;3778;42.572;23.426;2022-12-15T01:01:58;22.27;;;8.37;;
7473;SDS011;3778;42.572;23.426;2022-12-15T01:04:42;13.03;;;6.70;;
7473;SDS011;3778;42.572;23.426;2022-12-15T01:07:27;15.83;;;9.50;;
7473;SDS011;3778;42.572;23.426;2022-12-15T01:10:11;15.77;;;8.07;;
7473;SDS011;3778;42.572;23.426;2022-12-15T01:12:55;16.43;;;8.33;;
7473;SDS011;3778;42.572;23.426;2022-12-15T01:15:39;15.20;;;8.20;;
7473;SDS011;3778;42.572;23.426;2022-12-15T01:18:24;10.97;;;6.07;;
7473;SDS011;3778;42.572;23.426;2022-12-15T01:21:09;8.70;;;5.17;;
7473;SDS011;3778;42.572;23.426;2022-12-15T01:23:39;8.93;;;4.80;;
7473;SDS011;3778;42.572;23.426;2022-12-15T01:26:06;8.03;;;4.60;;
7473;SDS011;3778;42.572;23.426;2022-12-15T01:28:33;7.93;;;4.60;;
7473;SDS011;3778;42.572;23.426;2022-12-15T01:31:00;9.97;;;5.67;;
7473;SDS011;3778;42.572;23.426;2022-12-15T01:33:27;10.23;;;5.40;;
7473;SDS011;3778;42.572;23.426;2022-12-15T01:35:55;7.90;;;4.97;;
7473;SDS011;3778;42.572;23.426;2022-12-15T01:38:22;6.37;;;3.87;;
7473;SDS011;3778;42.572;23.426;2022-12-15T01:40:52;5.17;;;3.50;;
7473;SDS011;3778;42.572;23.426;2022-12-15T01:43:21;5.90;;;3.40;;
7473;SDS011;3778;42.572;23.426;2022-12-15T01:45:50;4.80;;;2.93;;
7473;SDS011;3778;42.572;23.426;2022-12-15T01:48:24;6.03;;;3.13;;
7473;SDS011;3778;42.572;23.426;2022-12-15T01:50:59;5.30;;;3.00;;
7473;SDS011;3778;42.572;23.426;2022-12-15T01:53:31;4.53;;;3.13;;
7473;SDS011;3778;42.572;23.426;2022-12-15T01:56:04;4.87;;;3.00;;
7473;SDS011;3778;42.572;23.426;2022-12-15T01:58:33;3.20;;;1.93;;
7473;SDS011;3778;42.572;23.426;2022-12-15T02:01:01;4.97;;;3.17;;
7473;SDS011;3778;42.572;23.426;2022-12-15T02:03:29;3.70;;;2.80;;
7473;SDS011;3778;42.572;23.426;2022-12-15T02:05:56;4.43;;;2.47;;
7473;SDS011;3778;42.572;23.426;2022-12-15T02:08:25;4.80;;;3.33;;
7473;SDS011;3778;42.572;23.426;2022-12-15T02:10:56;4.23;;;2.63;;
7473;SDS011;3778;42.572;23.426;2022-12-15T02:13:37;4.47;;;2.97;;
7473;SDS011;3778;42.572;23.426;2022-12-15T02:16:11;3.50;;;2.63;;
7473;SDS011;3778;42.572;23.426;2022-12-15T02:18:45;4.27;;;2.63;;
7473;SDS011;3778;42.572;23.426;2022-12-15T02:21:20;4.20;;;2.60;;
7473;SDS011;3778;42.572;23.426;2022-12-15T02:30:10;3.40;;;2.50;;
7473;SDS011;3778;42.572;23.426;2022-12-15T02:32:42;2.70;;;2.30;;
7473;SDS011;3778;42.572;23.426;2022-12-15T02:35:14;1.83;;;1.73;;
7473;SDS011;3778;42.572;23.426;2022-12-15T02:37:47;2.73;;;2.17;;
7473;SDS011;3778;42.572;23.426;2022-12-15T02:40:14;7.63;;;5.47;;
7473;SDS011;3778;42.572;23.426;2022-12-15T02:42:42;2.17;;;1.70;;
7473;SDS011;3778;42.572;23.426;2022-12-15T02:45:13;1.60;;;1.50;;
7473;SDS011;3778;42.572;23.426;2022-12-15T02:47:42;1.77;;;1.57;;
7473;SDS011;3778;42.572;23.426;2022-12-15T02:50:19;2.43;;;2.13;;
7473;SDS011;3778;42.572;23.426;2022-12-15T02:53:00;2.13;;;1.93;;
7473;SDS011;3778;42.572;23.426;2022-12-15T02:55:35;2.87;;;1.83;;
7473;SDS011;3778;42.572;23.426;2022-12-15T02:58:12;3.17;;;2.47;;
7473;SDS011;3778;42.572;23.426;2022-12-15T03:00:49;3.07;;;2.13;;
7473;SDS011;3778;42.572;23.426;2022-12-15T03:03:19;5.80;;;3.37;;
7473;SDS011;3778;42.572;23.426;2022-12-15T03:05:48;6.53;;;4.07;;
7473;SDS011;3778;42.572;23.426;2022-12-15T03:08:17;6.90;;;4.63;;
7473;SDS011;3778;42.572;23.426;2022-12-15T03:10:45;8.40;;;6.00;;
7473;SDS011;3778;42.572;23.426;2022-12-15T03:13:12;7.37;;;5.17;;
7473;SDS011;3778;42.572;23.426;2022-12-15T03:15:39;8.50;;;5.47;;
7473;SDS011;3778;42.572;23.426;2022-12-15T03:18:08;6.90;;;5.00;;
7473;SDS011;3778;42.572;23.426;2022-12-15T03:20:34;8.17;;;5.00;;
7473;SDS011;3778;42.572;23.426;2022-12-15T03:23:01;7.03;;;4.80;;
7473;SDS011;3778;42.572;23.426;2022-12-15T03:25:28;10.03;;;5.40;;
7473;SDS011;3778;42.572;23.426;2022-12-15T03:27:55;10.03;;;5.67;;
7473;SDS011;3778;42.572;23.426;2022-12-15T03:30:22;9.00;;;5.33;;
7473;SDS011;3778;42.572;23.426;2022-12-15T03:32:48;10.80;;;6.73;;
7473;SDS011;3778;42.572;23.426;2022-12-15T03:35:16;8.83;;;4.63;;
7473;SDS011;3778;42.572;23.426;2022-12-15T03:37:43;13.83;;;7.47;;
7473;SDS011;3778;42.572;23.426;2022-12-15T03:40:10;10.43;;;7.10;;
7473;SDS011;3778;42.572;23.426;2022-12-15T03:42:38;14.27;;;7.80;;
7473;SDS011;3778;42.572;23.426;2022-12-15T03:45:17;13.90;;;6.33;;
7473;SDS011;3778;42.572;23.426;2022-12-15T03:47:45;12.03;;;7.00;;
7473;SDS011;3778;42.572;23.426;2022-12-15T03:50:14;13.50;;;7.23;;
7473;SDS011;3778;42.572;23.426;2022-12-15T03:52:44;15.03;;;8.03;;
7473;SDS011;3778;42.572;23.426;2022-12-15T03:55:11;13.70;;;8.60;;
7473;SDS011;3778;42.572;23.426;2022-12-15T03:57:37;11.77;;;7.47;;
7473;SDS011;3778;42.572;23.426;2022-12-15T04:00:05;15.37;;;8.77;;
7473;SDS011;3778;42.572;23.426;2022-12-15T04:02:32;14.23;;;8.27;;
7473;SDS011;3778;42.572;23.426;2022-12-15T04:04:59;16.63;;;9.93;;
7473;SDS011;3778;42.572;23.426;2022-12-15T04:07:27;12.97;;;8.30;;
7473;SDS011;3778;42.572;23.426;2022-12-15T04:09:54;14.10;;;8.70;;
7473;SDS011;3778;42.572;23.426;2022-12-15T04:12:20;19.43;;;10.27;;
7473;SDS011;3778;42.572;23.426;2022-12-15T04:14:47;16.30;;;9.33;;
7473;SDS011;3778;42.572;23.426;2022-12-15T04:17:14;19.87;;;10.53;;
7473;SDS011;3778;42.572;23.426;2022-12-15T04:19:40;13.97;;;8.10;;
7473;SDS011;3778;42.572;23.426;2022-12-15T04:22:25;14.57;;;7.73;;
7473;SDS011;3778;42.572;23.426;2022-12-15T04:24:53;13.50;;;7.37;;
7473;SDS011;3778;42.572;23.426;2022-12-15T04:27:37;11.57;;;7.50;;
7473;SDS011;3778;42.572;23.426;2022-12-15T04:30:21;15.70;;;7.60;;
7473;SDS011;3778;42.572;23.426;2022-12-15T04:33:05;12.03;;;6.97;;
7473;SDS011;3778;42.572;23.426;2022-12-15T04:35:49;11.37;;;5.93;;
7473;SDS011;3778;42.572;23.426;2022-12-15T04:38:34;12.13;;;7.47;;
7473;SDS011;3778;42.572;23.426;2022-12-15T04:41:20;10.00;;;6.33;;
7473;SDS011;3778;42.572;23.426;2022-12-15T04:44:07;7.97;;;3.60;;
7473;SDS011;3778;42.572;23.426;2022-12-15T04:46:53;5.83;;;4.60;;
7473;SDS011;3778;42.572;23.426;2022-12-15T04:49:37;9.23;;;4.57;;
7473;SDS011;3778;42.572;23.426;2022-12-15T04:52:22;7.07;;;3.93;;
7473;SDS011;3778;42.572;23.426;2022-12-15T04:55:06;10.13;;;4.10;;
7473;SDS011;3778;42.572;23.426;2022-12-15T04:57:52;4.73;;;2.70;;
7473;SDS011;3778;42.572;23.426;2022-12-15T05:00:36;4.23;;;3.20;;
7473;SDS011;3778;42.572;23.426;2022-12-15T05:03:20;4.73;;;3.40;;
7473;SDS011;3778;42.572;23.426;2022-12-15T05:06:04;4.67;;;3.53;;
7473;SDS011;3778;42.572;23.426;2022-12-15T05:08:48;6.43;;;3.73;;
7473;SDS011;3778;42.572;23.426;2022-12-15T05:11:32;6.47;;;3.70;;
7473;SDS011;3778;42.572;23.426;2022-12-15T05:14:17;3.97;;;2.50;;
7473;SDS011;3778;42.572;23.426;2022-12-15T05:17:01;5.23;;;3.23;;
7473;SDS011;3778;42.572;23.426;2022-12-15T05:19:45;4.00;;;3.07;;
7473;SDS011;3778;42.572;23.426;2022-12-15T05:22:29;6.63;;;3.73;;
7473;SDS011;3778;42.572;23.426;2022-12-15T05:25:13;6.37;;;3.70;;
7473;SDS011;3778;42.572;23.426;2022-12-15T05:27:57;8.30;;;4.90;;
7473;SDS011;3778;42.572;23.426;2022-12-15T05:30:43;10.13;;;5.80;;
7473;SDS011;3778;42.572;23.426;2022-12-15T05:33:27;11.33;;;6.53;;
7473;SDS011;3778;42.572;23.426;2022-12-15T05:35:54;11.67;;;7.50;;
7473;SDS011;3778;42.572;23.426;2022-12-15T05:38:22;11.10;;;7.30;;
7473;SDS011;3778;42.572;23.426;2022-12-15T05:40:48;12.00;;;7.30;;
7473;SDS011;3778;42.572;23.426;2022-12-15T05:43:15;16.67;;;9.67;;
7473;SDS011;3778;42.572;23.426;2022-12-15T05:45:44;14.17;;;8.13;;
7473;SDS011;3778;42.572;23.426;2022-12-15T05:48:10;24.27;;;11.60;;
7473;SDS011;3778;42.572;23.426;2022-12-15T05:50:37;20.93;;;10.13;;
7473;SDS011;3778;42.572;23.426;2022-12-15T05:53:04;18.27;;;10.60;;
7473;SDS011;3778;42.572;23.426;2022-12-15T05:55:30;20.37;;;11.60;;
7473;SDS011;3778;42.572;23.426;2022-12-15T05:57:57;26.67;;;13.80;;
7473;SDS011;3778;42.572;23.426;2022-12-15T06:00:24;23.30;;;13.03;;
7473;SDS011;3778;42.572;23.426;2022-12-15T06:02:52;27.07;;;13.57;;
7473;SDS011;3778;42.572;23.426;2022-12-15T06:05:19;30.03;;;13.80;;
7473;SDS011;3778;42.572;23.426;2022-12-15T06:07:45;21.43;;;12.20;;
7473;SDS011;3778;42.572;23.426;2022-12-15T06:10:12;25.03;;;13.17;;
7473;SDS011;3778;42.572;23.426;2022-12-15T06:12:39;35.40;;;14.43;;
7473;SDS011;3778;42.572;23.426;2022-12-15T06:15:06;24.17;;;13.07;;
7473;SDS011;3778;42.572;23.426;2022-12-15T06:17:33;27.87;;;15.77;;
7473;SDS011;3778;42.572;23.426;2022-12-15T06:20:01;22.80;;;13.63;;
7473;SDS011;3778;42.572;23.426;2022-12-15T06:22:28;24.03;;;11.73;;
7473;SDS011;3778;42.572;23.426;2022-12-15T06:24:55;23.93;;;13.00;;
7473;SDS011;3778;42.572;23.426;2022-12-15T06:27:22;28.53;;;14.47;;
7473;SDS011;3778;42.572;23.426;2022-12-15T06:29:48;33.37;;;14.13;;
7473;SDS011;3778;42.572;23.426;2022-12-15T06:32:15;41.03;;;15.83;;
7473;SDS011;3778;42.572;23.426;2022-12-15T06:34:42;27.00;;;13.63;;
7473;SDS011;3778;42.572;23.426;2022-12-15T06:37:10;31.40;;;15.50;;
7473;SDS011;3778;42.572;23.426;2022-12-15T06:39:36;31.23;;;15.43;;
7473;SDS011;3778;42.572;23.426;2022-12-15T06:42:03;27.90;;;13.73;;
7473;SDS011;3778;42.572;23.426;2022-12-15T06:44:30;47.97;;;16.97;;
7473;SDS011;3778;42.572;23.426;2022-12-15T06:46:57;128.03;;;21.00;;
7473;SDS011;3778;42.572;23.426;2022-12-15T06:49:23;30.13;;;15.63;;
7473;SDS011;3778;42.572;23.426;2022-12-15T06:51:50;38.33;;;16.77;;
7473;SDS011;3778;42.572;23.426;2022-12-15T06:54:18;30.43;;;16.23;;
7473;SDS011;3778;42.572;23.426;2022-12-15T06:56:45;33.57;;;16.77;;
7473;SDS011;3778;42.572;23.426;2022-12-15T06:59:11;63.90;;;23.53;;
7473;SDS011;3778;42.572;23.426;2022-12-15T07:01:38;34.70;;;17.47;;
7473;SDS011;3778;42.572;23.426;2022-12-15T07:04:06;31.20;;;15.63;;
7473;SDS011;3778;42.572;23.426;2022-12-15T07:06:36;31.00;;;16.70;;
7473;SDS011;3778;42.572;23.426;2022-12-15T07:09:04;29.70;;;16.33;;
7473;SDS011;3778;42.572;23.426;2022-12-15T07:11:35;34.93;;;16.30;;
7473;SDS011;3778;42.572;23.426;2022-12-15T07:14:02;31.87;;;14.40;;
7473;SDS011;3778;42.572;23.426;2022-12-15T07:16:29;37.43;;;19.13;;
7473;SDS011;3778;42.572;23.426;2022-12-15T07:18:56;30.07;;;16.10;;
7473;SDS011;3778;42.572;23.426;2022-12-15T07:21:23;31.87;;;15.93;;
7473;SDS011;3778;42.572;23.426;2022-12-15T07:23:50;29.30;;;12.77;;
7473;SDS011;3778;42.572;23.426;2022-12-15T07:26:16;30.70;;;15.73;;
7473;SDS011;3778;42.572;23.426;2022-12-15T07:28:45;28.00;;;14.10;;
7473;SDS011;3778;42.572;23.426;2022-12-15T07:31:11;28.53;;;13.53;;
7473;SDS011;3778;42.572;23.426;2022-12-15T07:33:39;25.83;;;13.33;;
7473;SDS011;3778;42.572;23.426;2022-12-15T07:36:06;24.23;;;13.23;;
7473;SDS011;3778;42.572;23.426;2022-12-15T07:38:33;25.20;;;13.80;;
7473;SDS011;3778;42.572;23.426;2022-12-15T07:41:00;25.53;;;14.43;;
7473;SDS011;3778;42.572;23.426;2022-12-15T07:43:28;25.57;;;12.50;;
7473;SDS011;3778;42.572;23.426;2022-12-15T07:45:56;23.33;;;13.00;;
7473;SDS011;3778;42.572;23.426;2022-12-15T07:48:23;21.60;;;12.23;;
7473;SDS011;3778;42.572;23.426;2022-12-15T07:50:51;21.27;;;11.80;;
7473;SDS011;3778;42.572;23.426;2022-12-15T07:53:22;17.57;;;10.80;;
7473;SDS011;3778;42.572;23.426;2022-12-15T07:55:52;22.07;;;12.07;;
7473;SDS011;3778;42.572;23.426;2022-12-15T07:58:20;21.63;;;12.10;;
7473;SDS011;3778;42.572;23.426;2022-12-15T08:00:47;15.10;;;8.17;;
7473;SDS011;3778;42.572;23.426;2022-12-15T08:03:15;19.83;;;10.57;;
7473;SDS011;3778;42.572;23.426;2022-12-15T08:05:42;20.13;;;11.37;;
7473;SDS011;3778;42.572;23.426;2022-12-15T08:08:09;20.30;;;11.83;;
7473;SDS011;3778;42.572;23.426;2022-12-15T08:10:37;23.67;;;11.57;;
7473;SDS011;3778;42.572;23.426;2022-12-15T08:13:04;23.27;;;12.30;;
7473;SDS011;3778;42.572;23.426;2022-12-15T08:15:33;20.03;;;11.50;;
7473;SDS011;3778;42.572;23.426;2022-12-15T08:18:00;22.00;;;12.57;;
7473;SDS011;3778;42.572;23.426;2022-12-15T08:20:28;24.43;;;12.70;;
7473;SDS011;3778;42.572;23.426;2022-12-15T08:22:55;24.00;;;11.37;;
7473;SDS011;3778;42.572;23.426;2022-12-15T08:25:22;21.17;;;12.87;;
7473;SDS011;3778;42.572;23.426;2022-12-15T08:27:49;19.60;;;11.23;;
7473;SDS011;3778;42.572;23.426;2022-12-15T08:30:16;16.80;;;10.17;;
7473;SDS011;3778;42.572;23.426;2022-12-15T08:32:43;18.63;;;10.50;;
7473;SDS011;3778;42.572;23.426;2022-12-15T08:35:10;18.10;;;9.87;;
7473;SDS011;3778;42.572;23.426;2022-12-15T08:37:38;20.43;;;10.87;;
7473;SDS011;3778;42.572;23.426;2022-12-15T08:40:06;18.93;;;10.50;;
7473;SDS011;3778;42.572;23.426;2022-12-15T08:42:33;19.83;;;11.30;;
7473;SDS011;3778;42.572;23.426;2022-12-15T08:45:00;18.00;;;10.57;;
7473;SDS011;3778;42.572;23.426;2022-12-15T08:47:27;22.30;;;10.83;;
7473;SDS011;3778;42.572;23.426;2022-12-15T08:49:53;16.63;;;9.43;;
7473;SDS011;3778;42.572;23.426;2022-12-15T08:52:20;16.30;;;9.80;;
7473;SDS011;3778;42.572;23.426;2022-12-15T08:54:49;16.00;;;10.03;;
7473;SDS011;3778;42.572;23.426;2022-12-15T08:57:15;17.50;;;9.80;;
7473;SDS011;3778;42.572;23.426;2022-12-15T08:59:42;15.40;;;8.77;;
7473;SDS011;3778;42.572;23.426;2022-12-15T09:02:09;14.47;;;8.67;;
7473;SDS011;3778;42.572;23.426;2022-12-15T09:04:37;13.97;;;8.57;;
7473;SDS011;3778;42.572;23.426;2022-12-15T09:07:04;13.37;;;8.37;;
7473;SDS011;3778;42.572;23.426;2022-12-15T09:09:31;15.30;;;9.50;;
7473;SDS011;3778;42.572;23.426;2022-12-15T09:11:59;13.47;;;8.67;;
7473;SDS011;3778;42.572;23.426;2022-12-15T09:14:26;9.90;;;6.33;;
7473;SDS011;3778;42.572;23.426;2022-12-15T09:16:53;12.00;;;7.40;;
7473;SDS011;3778;42.572;23.426;2022-12-15T09:19:20;12.10;;;7.30;;
7473;SDS011;3778;42.572;23.426;2022-12-15T09:21:47;12.27;;;6.97;;
7473;SDS011;3778;42.572;23.426;2022-12-15T09:24:13;13.20;;;8.20;;
7473;SDS011;3778;42.572;23.426;2022-12-15T09:26:40;15.23;;;8.27;;
7473;SDS011;3778;42.572;23.426;2022-12-15T09:29:10;14.27;;;8.27;;
7473;SDS011;3778;42.572;23.426;2022-12-15T09:31:38;10.90;;;6.77;;
7473;SDS011;3778;42.572;23.426;2022-12-15T09:34:10;10.87;;;6.63;;
7473;SDS011;3778;42.572;23.426;2022-12-15T09:36:40;10.47;;;6.03;;
7473;SDS011;3778;42.572;23.426;2022-12-15T09:39:07;10.33;;;6.67;;
7473;SDS011;3778;42.572;23.426;2022-12-15T09:41:36;10.73;;;6.60;;
7473;SDS011;3778;42.572;23.426;2022-12-15T09:44:05;9.63;;;6.40;;
7473;SDS011;3778;42.572;23.426;2022-12-15T09:46:42;9.20;;;5.90;;
7473;SDS011;3778;42.572;23.426;2022-12-15T09:49:20;7.00;;;4.90;;
7473;SDS011;3778;42.572;23.426;2022-12-15T09:51:56;7.10;;;4.50;;
7473;SDS011;3778;42.572;23.426;2022-12-15T09:54:30;8.63;;;4.80;;
7473;SDS011;3778;42.572;23.426;2022-12-15T09:56:59;6.03;;;4.30;;
7473;SDS011;3778;42.572;23.426;2022-12-15T09:59:30;6.03;;;3.70;;
7473;SDS011;3778;42.572;23.426;2022-12-15T10:02:12;6.93;;;4.70;;
7473;SDS011;3778;42.572;23.426;2022-12-15T10:04:54;6.57;;;4.33;;
7473;SDS011;3778;42.572;23.426;2022-12-15T10:07:26;9.00;;;4.53;;
7473;SDS011;3778;42.572;23.426;2022-12-15T10:09:58;7.03;;;4.63;;
7473;SDS011;3778;42.572;23.426;2022-12-15T10:12:31;5.83;;;3.70;;
7473;SDS011;3778;42.572;23.426;2022-12-15T10:15:04;7.67;;;4.17;;
7473;SDS011;3778;42.572;23.426;2022-12-15T10:17:42;8.03;;;4.33;;
7473;SDS011;3778;42.572;23.426;2022-12-15T10:20:16;6.73;;;4.17;;
7473;SDS011;3778;42.572;23.426;2022-12-15T10:22:45;7.40;;;4.23;;
7473;SDS011;3778;42.572;23.426;2022-12-15T10:25:14;8.03;;;4.70;;
7473;SDS011;3778;42.572;23.426;2022-12-15T10:30:36;11.33;;;6.83;;
7473;SDS011;3778;42.572;23.426;2022-12-15T10:33:10;11.27;;;6.93;;
7473;SDS011;3778;42.572;23.426;2022-12-15T10:35:43;16.43;;;9.50;;
7473;SDS011;3778;42.572;23.426;2022-12-15T10:38:13;19.27;;;11.70;;
7473;SDS011;3778;42.572;23.426;2022-12-15T10:40:49;24.30;;;13.93;;
7473;SDS011;3778;42.572;23.426;2022-12-15T10:43:24;20.30;;;13.30;;
7473;SDS011;3778;42.572;23.426;2022-12-15T10:46:05;27.37;;;15.63;;
7473;SDS011;3778;42.572;23.426;2022-12-15T10:48:39;29.80;;;17.13;;
7473;SDS011;3778;42.572;23.426;2022-12-15T10:51:13;22.50;;;14.93;;
7473;SDS011;3778;42.572;23.426;2022-12-15T10:53:43;23.77;;;14.57;;
7473;SDS011;3778;42.572;23.426;2022-12-15T10:56:15;30.57;;;16.97;;
7473;SDS011;3778;42.572;23.426;2022-12-15T10:58:46;29.37;;;15.93;;
7473;SDS011;3778;42.572;23.426;2022-12-15T11:01:17;30.43;;;17.00;;
7473;SDS011;3778;42.572;23.426;2022-12-15T11:03:47;26.17;;;15.20;;
7473;SDS011;3778;42.572;23.426;2022-12-15T11:06:17;26.93;;;15.63;;
7473;SDS011;3778;42.572;23.426;2022-12-15T11:08:46;30.73;;;17.17;;
7473;SDS011;3778;42.572;23.426;2022-12-15T11:11:28;43.53;;;23.77;;
7473;SDS011;3778;42.572;23.426;2022-12-15T11:14:16;42.97;;;24.70;;
7473;SDS011;3778;42.572;23.426;2022-12-15T11:16:48;51.30;;;27.20;;
7473;SDS011;3778;42.572;23.426;2022-12-15T11:19:26;50.63;;;30.57;;
7473;SDS011;3778;42.572;23.426;2022-12-15T11:21:58;53.70;;;32.00;;
7473;SDS011;3778;42.572;23.426;2022-12-15T11:24:32;64.20;;;34.87;;
7473;SDS011;3778;42.572;23.426;2022-12-15T11:27:07;72.23;;;35.57;;
7473;SDS011;3778;42.572;23.426;2022-12-15T11:29:43;66.13;;;33.87;;
7473;SDS011;3778;42.572;23.426;2022-12-15T11:32:20;56.43;;;29.73;;
7473;SDS011;3778;42.572;23.426;2022-12-15T11:34:51;52.03;;;29.77;;
7473;SDS011;3778;42.572;23.426;2022-12-15T11:37:34;54.93;;;29.53;;
7473;SDS011;3778;42.572;23.426;2022-12-15T11:40:18;60.50;;;32.43;;
7473;SDS011;3778;42.572;23.426;2022-12-15T11:42:55;46.67;;;26.97;;
7473;SDS011;3778;42.572;23.426;2022-12-15T11:45:40;65.30;;;29.57;;
7473;SDS011;3778;42.572;23.426;2022-12-15T11:48:28;75.93;;;37.07;;
7473;SDS011;3778;42.572;23.426;2022-12-15T11:51:03;78.53;;;38.10;;
7473;SDS011;3778;42.572;23.426;2022-12-15T11:53:40;62.33;;;32.03;;
7473;SDS011;3778;42.572;23.426;2022-12-15T11:56:19;68.10;;;32.93;;
7473;SDS011;3778;42.572;23.426;2022-12-15T11:58:56;71.50;;;35.47;;
7473;SDS011;3778;42.572;23.426;2022-12-15T12:01:46;74.83;;;34.57;;
7473;SDS011;3778;42.572;23.426;2022-12-15T12:04:23;66.70;;;35.10;;
7473;SDS011;3778;42.572;23.426;2022-12-15T12:06:56;61.60;;;33.73;;
7473;SDS011;3778;42.572;23.426;2022-12-15T12:09:34;60.93;;;32.57;;
7473;SDS011;3778;42.572;23.426;2022-12-15T12:12:06;75.53;;;34.47;;
7473;SDS011;3778;42.572;23.426;2022-12-15T12:14:42;72.07;;;36.23;;
7473;SDS011;3778;42.572;23.426;2022-12-15T12:17:19;64.50;;;33.87;;
7473;SDS011;3778;42.572;23.426;2022-12-15T12:19:57;64.23;;;31.93;;
7473;SDS011;3778;42.572;23.426;2022-12-15T12:22:28;64.43;;;33.57;;
7473;SDS011;3778;42.572;23.426;2022-12-15T12:25:01;66.90;;;31.77;;
7473;SDS011;3778;42.572;23.426;2022-12-15T12:27:32;57.40;;;29.93;;
7473;SDS011;3778;42.572;23.426;2022-12-15T12:30:07;55.37;;;31.60;;
7473;SDS011;3778;42.572;23.426;2022-12-15T12:32:41;55.33;;;30.03;;
7473;SDS011;3778;42.572;23.426;2022-12-15T12:35:15;51.37;;;28.27;;
7473;SDS011;3778;42.572;23.426;2022-12-15T12:37:50;50.13;;;27.80;;
7473;SDS011;3778;42.572;23.426;2022-12-15T12:40:23;50.43;;;25.93;;
7473;SDS011;3778;42.572;23.426;2022-12-15T12:42:58;47.57;;;24.43;;
7473;SDS011;3778;42.572;23.426;2022-12-15T12:45:26;50.13;;;25.13;;
7473;SDS011;3778;42.572;23.426;2022-12-15T12:47:59;46.37;;;25.73;;
7473;SDS011;3778;42.572;23.426;2022-12-15T12:50:31;50.27;;;26.90;;
7473;SDS011;3778;42.572;23.426;2022-12-15T12:53:01;48.43;;;26.73;;
7473;SDS011;3778;42.572;23.426;2022-12-15T12:55:33;45.03;;;24.03;;
7473;SDS011;3778;42.572;23.426;2022-12-15T12:58:17;63.33;;;30.63;;
7473;SDS011;3778;42.572;23.426;2022-12-15T13:01:16;48.43;;;26.40;;
7473;SDS011;3778;42.572;23.426;2022-12-15T13:03:44;64.37;;;30.53;;
7473;SDS011;3778;42.572;23.426;2022-12-15T13:06:19;55.53;;;29.47;;
7473;SDS011;3778;42.572;23.426;2022-12-15T13:08:52;50.17;;;28.87;;
7473;SDS011;3778;42.572;23.426;2022-12-15T13:17:12;61.40;;;29.93;;
7473;SDS011;3778;42.572;23.426;2022-12-15T13:22:50;66.50;;;34.53;;
7473;SDS011;3778;42.572;23.426;2022-12-15T13:25:37;81.80;;;40.00;;
7473;SDS011;3778;42.572;23.426;2022-12-15T13:28:23;92.37;;;42.60;;
7473;SDS011;3778;42.572;23.426;2022-12-15T13:33:43;78.30;;;35.47;;
7473;SDS011;3778;42.572;23.426;2022-12-15T13:42:37;63.80;;;30.07;;
7473;SDS011;3778;42.572;23.426;2022-12-15T13:48:23;55.97;;;30.50;;
7473;SDS011;3778;42.572;23.426;2022-12-15T13:50:55;65.03;;;32.90;;
7473;SDS011;3778;42.572;23.426;2022-12-15T13:53:27;62.63;;;31.97;;
7473;SDS011;3778;42.572;23.426;2022-12-15T13:56:04;58.57;;;30.23;;
7473;SDS011;3778;42.572;23.426;2022-12-15T13:58:52;61.73;;;29.73;;
7473;SDS011;3778;42.572;23.426;2022-12-15T14:01:23;65.63;;;32.33;;
7473;SDS011;3778;42.572;23.426;2022-12-15T14:03:55;62.03;;;31.63;;
7473;SDS011;3778;42.572;23.426;2022-12-15T14:06:29;68.93;;;34.57;;
7473;SDS011;3778;42.572;23.426;2022-12-15T14:09:01;59.10;;;29.63;;
7473;SDS011;3778;42.572;23.426;2022-12-15T14:11:29;57.53;;;29.57;;
7473;SDS011;3778;42.572;23.426;2022-12-15T14:14:01;52.27;;;27.57;;
7473;SDS011;3778;42.572;23.426;2022-12-15T14:16:29;72.93;;;31.80;;
7473;SDS011;3778;42.572;23.426;2022-12-15T14:19:03;55.30;;;28.63;;
7473;SDS011;3778;42.572;23.426;2022-12-15T14:21:36;56.90;;;26.93;;
7473;SDS011;3778;42.572;23.426;2022-12-15T14:24:14;58.53;;;27.30;;
7473;SDS011;3778;42.572;23.426;2022-12-15T14:26:52;53.50;;;27.63;;
7473;SDS011;3778;42.572;23.426;2022-12-15T14:29:20;64.67;;;28.43;;
7473;SDS011;3778;42.572;23.426;2022-12-15T14:31:52;59.00;;;27.77;;
7473;SDS011;3778;42.572;23.426;2022-12-15T14:34:26;75.03;;;29.77;;
7473;SDS011;3778;42.572;23.426;2022-12-15T14:36:58;55.00;;;27.10;;
7473;SDS011;3778;42.572;23.426;2022-12-15T14:39:29;84.80;;;29.17;;
7473;SDS011;3778;42.572;23.426;2022-12-15T14:42:01;68.30;;;29.50;;
7473;SDS011;3778;42.572;23.426;2022-12-15T14:44:32;57.73;;;25.70;;
7473;SDS011;3778;42.572;23.426;2022-12-15T14:47:01;56.90;;;26.23;;
7473;SDS011;3778;42.572;23.426;2022-12-15T14:49:36;50.10;;;24.23;;
7473;SDS011;3778;42.572;23.426;2022-12-15T14:52:06;71.30;;;24.40;;
7473;SDS011;3778;42.572;23.426;2022-12-15T14:54:53;66.67;;;25.23;;
7473;SDS011;3778;42.572;23.426;2022-12-15T14:57:21;101.63;;;30.13;;
7473;SDS011;3778;42.572;23.426;2022-12-15T14:59:51;189.43;;;30.20;;
7473;SDS011;3778;42.572;23.426;2022-12-15T15:02:20;99.37;;;25.47;;
7473;SDS011;3778;42.572;23.426;2022-12-15T15:04:56;135.30;;;28.50;;
7473;SDS011;3778;42.572;23.426;2022-12-15T15:07:27;133.00;;;27.37;;
7473;SDS011;3778;42.572;23.426;2022-12-15T15:09:55;105.50;;;26.40;;
7473;SDS011;3778;42.572;23.426;2022-12-15T15:12:22;196.47;;;29.77;;
7473;SDS011;3778;42.572;23.426;2022-12-15T15:14:57;268.43;;;35.13;;
7473;SDS011;3778;42.572;23.426;2022-12-15T15:17:29;366.23;;;42.43;;
7473;SDS011;3778;42.572;23.426;2022-12-15T15:20:02;370.30;;;45.40;;
7473;SDS011;3778;42.572;23.426;2022-12-15T15:22:37;421.17;;;46.67;;
7473;SDS011;3778;42.572;23.426;2022-12-15T15:28:07;176.67;;;31.73;;
7473;SDS011;3778;42.572;23.426;2022-12-15T15:30:41;251.37;;;30.40;;
7473;SDS011;3778;42.572;23.426;2022-12-15T15:33:10;242.00;;;34.77;;
7473;SDS011;3778;42.572;23.426;2022-12-15T15:35:44;172.33;;;29.27;;
7473;SDS011;3778;42.572;23.426;2022-12-15T15:38:16;182.97;;;28.40;;
7473;SDS011;3778;42.572;23.426;2022-12-15T15:40:48;283.27;;;34.70;;
7473;SDS011;3778;42.572;23.426;2022-12-15T15:43:21;381.90;;;47.17;;
7473;SDS011;3778;42.572;23.426;2022-12-15T15:45:51;212.87;;;27.07;;
7473;SDS011;3778;42.572;23.426;2022-12-15T15:48:26;135.40;;;19.43;;